sensor_id;sensor_type;location;lat;lon;timestamp;P1;durP1;ratioP1;P2;durP2;ratioP2
1062;SDS011;520;50.932;6.962;2023-03-01T01:47:23;7.53;;;5.60;;
1062;SDS011;520;50.932;6.962;2023-03-01T02:11:28;6.80;;;5.47;;
1062;SDS011;520;50.932;6.962;2023-03-01T02:38:59;6.70;;;6.10;;
1062;SDS011;520;50.932;6.962;2023-03-01T03:59:15;10.53;;;6.80;;
1062;SDS011;520;50.932;6.962;2023-03-01T04:04:48;7.17;;;6.03;;
1062;SDS011;520;50.932;6.962;2023-03-01T04:07:48;11.27;;;7.13;;
1062;SDS011;520;50.932;6.962;2023-03-01T04:14:01;8.30;;;6.70;;
1062;SDS011;520;50.932;6.962;2023-03-01T04:17:15;6.60;;;5.90;;
1062;SDS011;520;50.932;6.962;2023-03-01T04:23:33;8.80;;;6.57;;
1062;SDS011;520;50.932;6.962;2023-03-01T04:29:57;7.90;;;6.33;;
1062;SDS011;520;50.932;6.962;2023-03-01T04:32:56;7.00;;;6.30;;
1062;SDS011;520;50.932;6.962;2023-03-01T04:36:12;7.77;;;6.27;;
1062;SDS011;520;50.932;6.962;2023-03-01T04:43:05;9.73;;;5.83;;
1062;SDS011;520;50.932;6.962;2023-03-01T04:46:19;8.80;;;6.80;;
1062;SDS011;520;50.932;6.962;2023-03-01T04:49:16;8.57;;;6.83;;
1062;SDS011;520;50.932;6.962;2023-03-01T04:52:04;8.07;;;6.70;;
1062;SDS011;520;50.932;6.962;2023-03-01T04:55:07;9.43;;;7.57;;
1062;SDS011;520;50.932;6.962;2023-03-01T05:04:47;10.20;;;7.20;;
1062;SDS011;520;50.932;6.962;2023-03-01T05:08:35;9.83;;;7.50;;
1062;SDS011;520;50.932;6.962;2023-03-01T05:11:14;8.60;;;6.77;;
1062;SDS011;520;50.932;6.962;2023-03-01T05:17:02;7.90;;;7.17;;
1062;SDS011;520;50.932;6.962;2023-03-01T05:20:26;9.63;;;8.30;;
1062;SDS011;520;50.932;6.962;2023-03-01T05:23:19;8.63;;;7.73;;
1062;SDS011;520;50.932;6.962;2023-03-01T05:25:57;10.73;;;6.90;;
1062;SDS011;520;50.932;6.962;2023-03-01T05:28:59;9.80;;;7.40;;
1062;SDS011;520;50.932;6.962;2023-03-01T05:34:51;9.90;;;7.83;;
1062;SDS011;520;50.932;6.962;2023-03-01T05:37:48;8.77;;;7.63;;
1062;SDS011;520;50.932;6.962;2023-03-01T05:43:46;10.60;;;7.20;;
1062;SDS011;520;50.932;6.962;2023-03-01T05:47:26;9.40;;;7.40;;
1062;SDS011;520;50.932;6.962;2023-03-01T05:51:03;7.63;;;6.83;;
1062;SDS011;520;50.932;6.962;2023-03-01T05:56:56;10.37;;;7.80;;
1062;SDS011;520;50.932;6.962;2023-03-01T06:03:11;9.20;;;7.50;;
1062;SDS011;520;50.932;6.962;2023-03-01T06:10:11;10.87;;;7.50;;
1062;SDS011;520;50.932;6.962;2023-03-01T06:13:42;7.90;;;7.13;;
1062;SDS011;520;50.932;6.962;2023-03-01T06:23:59;12.40;;;9.80;;
1062;SDS011;520;50.932;6.962;2023-03-01T06:27:08;9.80;;;7.40;;
1062;SDS011;520;50.932;6.962;2023-03-01T06:30:08;11.57;;;7.87;;
1062;SDS011;520;50.932;6.962;2023-03-01T06:33:38;10.43;;;8.67;;
1062;SDS011;520;50.932;6.962;2023-03-01T06:36:49;10.53;;;8.17;;
1062;SDS011;520;50.932;6.962;2023-03-01T06:43:07;13.10;;;8.20;;
1062;SDS011;520;50.932;6.962;2023-03-01T06:49:12;10.40;;;7.90;;
1062;SDS011;520;50.932;6.962;2023-03-01T06:52:30;9.97;;;8.07;;
1062;SDS011;520;50.932;6.962;2023-03-01T06:55:25;11.20;;;8.63;;
1062;SDS011;520;50.932;6.962;2023-03-01T07:08:00;14.23;;;8.60;;
1062;SDS011;520;50.932;6.962;2023-03-01T07:11:11;15.00;;;9.17;;
1062;SDS011;520;50.932;6.962;2023-03-01T07:17:51;11.50;;;8.53;;
1062;SDS011;520;50.932;6.962;2023-03-01T07:20:46;10.50;;;9.03;;
1062;SDS011;520;50.932;6.962;2023-03-01T07:23:27;11.90;;;9.43;;
1062;SDS011;520;50.932;6.962;2023-03-01T07:26:05;11.43;;;9.03;;
1062;SDS011;520;50.932;6.962;2023-03-01T07:29:04;11.20;;;9.33;;
1062;SDS011;520;50.932;6.962;2023-03-01T07:31:46;12.77;;;9.43;;
1062;SDS011;520;50.932;6.962;2023-03-01T07:34:51;12.50;;;9.00;;
1062;SDS011;520;50.932;6.962;2023-03-01T07:37:49;13.03;;;9.10;;
1062;SDS011;520;50.932;6.962;2023-03-01T07:40:46;12.60;;;10.63;;
1062;SDS011;520;50.932;6.962;2023-03-01T07:43:56;9.37;;;8.37;;
1062;SDS011;520;50.932;6.962;2023-03-01T07:47:02;12.50;;;8.40;;
1062;SDS011;520;50.932;6.962;2023-03-01T07:50:23;10.53;;;9.47;;
1062;SDS011;520;50.932;6.962;2023-03-01T07:53:36;12.00;;;10.00;;
1062;SDS011;520;50.932;6.962;2023-03-01T07:59:49;11.77;;;10.03;;
1062;SDS011;520;50.932;6.962;2023-03-01T08:02:41;12.40;;;10.07;;
1062;SDS011;520;50.932;6.962;2023-03-01T08:05:28;11.60;;;9.10;;
1062;SDS011;520;50.932;6.962;2023-03-01T08:08:23;13.27;;;10.40;;
1062;SDS011;520;50.932;6.962;2023-03-01T08:11:24;11.93;;;10.30;;
1062;SDS011;520;50.932;6.962;2023-03-01T08:13:56;14.70;;;9.90;;
1062;SDS011;520;50.932;6.962;2023-03-01T08:16:29;13.20;;;9.10;;
1062;SDS011;520;50.932;6.962;2023-03-01T08:22:07;13.80;;;9.40;;
1062;SDS011;520;50.932;6.962;2023-03-01T08:24:50;13.83;;;10.23;;
1062;SDS011;520;50.932;6.962;2023-03-01T08:27:34;11.13;;;9.77;;
1062;SDS011;520;50.932;6.962;2023-03-01T08:30:17;10.60;;;9.47;;
1062;SDS011;520;50.932;6.962;2023-03-01T08:33:04;15.30;;;10.33;;
1062;SDS011;520;50.932;6.962;2023-03-01T08:36:05;11.93;;;9.03;;
1062;SDS011;520;50.932;6.962;2023-03-01T08:38:55;14.37;;;10.43;;
1062;SDS011;520;50.932;6.962;2023-03-01T08:41:36;22.07;;;11.27;;
1062;SDS011;520;50.932;6.962;2023-03-01T08:44:40;15.67;;;9.67;;
1062;SDS011;520;50.932;6.962;2023-03-01T08:47:14;13.40;;;10.30;;
1062;SDS011;520;50.932;6.962;2023-03-01T08:50:04;13.30;;;10.03;;
1062;SDS011;520;50.932;6.962;2023-03-01T08:52:38;12.50;;;9.30;;
1062;SDS011;520;50.932;6.962;2023-03-01T08:55:34;11.37;;;9.37;;
1062;SDS011;520;50.932;6.962;2023-03-01T08:58:29;11.37;;;10.17;;
1062;SDS011;520;50.932;6.962;2023-03-01T09:01:23;11.80;;;9.97;;
1062;SDS011;520;50.932;6.962;2023-03-01T09:04:12;14.40;;;9.27;;
1062;SDS011;520;50.932;6.962;2023-03-01T09:06:54;10.33;;;8.97;;
1062;SDS011;520;50.932;6.962;2023-03-01T09:12:38;10.27;;;7.73;;
1062;SDS011;520;50.932;6.962;2023-03-01T09:15:22;17.00;;;9.90;;
1062;SDS011;520;50.932;6.962;2023-03-01T09:18:45;13.47;;;10.07;;
1062;SDS011;520;50.932;6.962;2023-03-01T09:21:32;11.83;;;8.67;;
1062;SDS011;520;50.932;6.962;2023-03-01T09:24:24;9.07;;;8.17;;
1062;SDS011;520;50.932;6.962;2023-03-01T09:27:17;13.00;;;9.17;;
1062;SDS011;520;50.932;6.962;2023-03-01T09:30:15;13.30;;;9.30;;
1062;SDS011;520;50.932;6.962;2023-03-01T09:32:57;9.60;;;8.53;;
1062;SDS011;520;50.932;6.962;2023-03-01T09:35:38;10.50;;;8.77;;
1062;SDS011;520;50.932;6.962;2023-03-01T09:41:35;12.00;;;9.23;;
1062;SDS011;520;50.932;6.962;2023-03-01T09:44:53;10.17;;;8.40;;
1062;SDS011;520;50.932;6.962;2023-03-01T09:47:27;9.57;;;8.13;;
1062;SDS011;520;50.932;6.962;2023-03-01T09:52:53;10.97;;;6.97;;
1062;SDS011;520;50.932;6.962;2023-03-01T09:58:50;11.27;;;7.57;;
1062;SDS011;520;50.932;6.962;2023-03-01T10:04:54;7.40;;;6.47;;
1062;SDS011;520;50.932;6.962;2023-03-01T10:10:38;8.93;;;7.97;;
1062;SDS011;520;50.932;6.962;2023-03-01T10:13:16;9.10;;;8.17;;
1062;SDS011;520;50.932;6.962;2023-03-01T10:16:32;10.53;;;7.57;;
1062;SDS011;520;50.932;6.962;2023-03-01T10:19:40;10.20;;;8.60;;
1062;SDS011;520;50.932;6.962;2023-03-01T10:22:19;10.20;;;8.67;;
1062;SDS011;520;50.932;6.962;2023-03-01T10:32:26;9.43;;;7.90;;
1062;SDS011;520;50.932;6.962;2023-03-01T10:40:56;11.17;;;9.20;;
1062;SDS011;520;50.932;6.962;2023-03-01T10:44:02;9.77;;;8.87;;
1062;SDS011;520;50.932;6.962;2023-03-01T10:47:45;11.87;;;8.77;;
1062;SDS011;520;50.932;6.962;2023-03-01T10:50:49;11.00;;;8.47;;
1062;SDS011;520;50.932;6.962;2023-03-01T10:57:04;9.00;;;7.63;;
1062;SDS011;520;50.932;6.962;2023-03-01T11:04:09;11.80;;;8.80;;
1062;SDS011;520;50.932;6.962;2023-03-01T11:07:00;11.70;;;8.73;;
1062;SDS011;520;50.932;6.962;2023-03-01T11:13:07;10.87;;;8.23;;
1062;SDS011;520;50.932;6.962;2023-03-01T11:16:15;11.03;;;8.53;;
1062;SDS011;520;50.932;6.962;2023-03-01T11:19:35;10.17;;;8.00;;
1062;SDS011;520;50.932;6.962;2023-03-01T11:22:56;14.03;;;10.40;;
1062;SDS011;520;50.932;6.962;2023-03-01T11:29:27;10.70;;;8.60;;
1062;SDS011;520;50.932;6.962;2023-03-01T11:32:50;9.33;;;7.80;;
1062;SDS011;520;50.932;6.962;2023-03-01T11:40:10;10.00;;;8.97;;
1062;SDS011;520;50.932;6.962;2023-03-01T11:53:59;9.13;;;8.20;;
1062;SDS011;520;50.932;6.962;2023-03-01T12:24:36;9.17;;;7.57;;
1062;SDS011;520;50.932;6.962;2023-03-01T12:48:28;11.60;;;8.30;;
1062;SDS011;520;50.932;6.962;2023-03-01T12:51:31;9.47;;;8.47;;
1062;SDS011;520;50.932;6.962;2023-03-01T12:54:29;10.57;;;8.67;;
1062;SDS011;520;50.932;6.962;2023-03-01T13:50:42;9.10;;;8.30;;
1062;SDS011;520;50.932;6.962;2023-03-01T14:02:24;10.20;;;8.67;;
1062;SDS011;520;50.932;6.962;2023-03-01T14:05:16;9.07;;;8.17;;
1062;SDS011;520;50.932;6.962;2023-03-01T14:08:29;9.13;;;7.70;;
1062;SDS011;520;50.932;6.962;2023-03-01T14:11:29;8.40;;;7.47;;
1062;SDS011;520;50.932;6.962;2023-03-01T14:17:24;9.27;;;8.37;;
1062;SDS011;520;50.932;6.962;2023-03-01T14:20:36;10.53;;;7.37;;
1062;SDS011;520;50.932;6.962;2023-03-01T14:23:56;8.40;;;7.60;;
1062;SDS011;520;50.932;6.962;2023-03-01T14:26:28;8.10;;;6.80;;
1062;SDS011;520;50.932;6.962;2023-03-01T14:32:51;8.43;;;6.90;;
1062;SDS011;520;50.932;6.962;2023-03-01T14:36:25;9.20;;;6.90;;
1062;SDS011;520;50.932;6.962;2023-03-01T14:39:28;11.50;;;7.83;;
1062;SDS011;520;50.932;6.962;2023-03-01T14:42:40;8.50;;;6.60;;
1062;SDS011;520;50.932;6.962;2023-03-01T14:45:30;7.43;;;6.73;;
1062;SDS011;520;50.932;6.962;2023-03-01T14:48:10;8.47;;;7.00;;
1062;SDS011;520;50.932;6.962;2023-03-01T14:51:17;8.23;;;7.43;;
1062;SDS011;520;50.932;6.962;2023-03-01T14:54:00;7.53;;;6.83;;
1062;SDS011;520;50.932;6.962;2023-03-01T14:57:22;12.70;;;7.90;;
1062;SDS011;520;50.932;6.962;2023-03-01T15:03:39;8.80;;;7.90;;
1062;SDS011;520;50.932;6.962;2023-03-01T15:07:00;9.20;;;8.30;;
1062;SDS011;520;50.932;6.962;2023-03-01T15:10:01;7.93;;;7.10;;
1062;SDS011;520;50.932;6.962;2023-03-01T15:13:23;9.67;;;6.67;;
1062;SDS011;520;50.932;6.962;2023-03-01T15:23:26;8.90;;;7.30;;
1062;SDS011;520;50.932;6.962;2023-03-01T15:34:25;9.60;;;7.20;;
1062;SDS011;520;50.932;6.962;2023-03-01T15:39:59;7.60;;;6.80;;
1062;SDS011;520;50.932;6.962;2023-03-01T15:43:05;8.00;;;6.80;;
1062;SDS011;520;50.932;6.962;2023-03-01T15:52:45;10.47;;;7.17;;
1062;SDS011;520;50.932;6.962;2023-03-01T15:55:36;8.53;;;6.70;;
1062;SDS011;520;50.932;6.962;2023-03-01T16:01:14;9.10;;;6.83;;
1062;SDS011;520;50.932;6.962;2023-03-01T16:03:56;8.23;;;6.67;;
1062;SDS011;520;50.932;6.962;2023-03-01T16:06:44;8.07;;;6.90;;
1062;SDS011;520;50.932;6.962;2023-03-01T16:10:15;7.23;;;6.53;;
1062;SDS011;520;50.932;6.962;2023-03-01T16:12:59;7.20;;;6.27;;
1062;SDS011;520;50.932;6.962;2023-03-01T16:15:41;8.63;;;5.93;;
1062;SDS011;520;50.932;6.962;2023-03-01T16:18:59;8.30;;;6.37;;
1062;SDS011;520;50.932;6.962;2023-03-01T16:25:01;7.60;;;6.40;;
1062;SDS011;520;50.932;6.962;2023-03-01T16:27:42;7.30;;;6.53;;
1062;SDS011;520;50.932;6.962;2023-03-01T16:30:40;7.40;;;5.50;;
1062;SDS011;520;50.932;6.962;2023-03-01T16:33:39;6.83;;;6.13;;
1062;SDS011;520;50.932;6.962;2023-03-01T16:36:21;10.50;;;6.70;;
1062;SDS011;520;50.932;6.962;2023-03-01T16:39:04;7.33;;;5.90;;
1062;SDS011;520;50.932;6.962;2023-03-01T16:42:08;7.30;;;6.10;;
1062;SDS011;520;50.932;6.962;2023-03-01T16:44:38;6.67;;;6.03;;
1062;SDS011;520;50.932;6.962;2023-03-01T16:47:25;9.63;;;6.63;;
1062;SDS011;520;50.932;6.962;2023-03-01T16:50:07;7.03;;;5.90;;
1062;SDS011;520;50.932;6.962;2023-03-01T16:53:15;7.33;;;6.13;;
1062;SDS011;520;50.932;6.962;2023-03-01T16:56:03;7.80;;;6.57;;
1062;SDS011;520;50.932;6.962;2023-03-01T16:59:03;7.30;;;6.60;;
1062;SDS011;520;50.932;6.962;2023-03-01T17:01:33;8.03;;;5.80;;
1062;SDS011;520;50.932;6.962;2023-03-01T17:04:15;7.57;;;6.17;;
1062;SDS011;520;50.932;6.962;2023-03-01T17:07:19;6.30;;;5.70;;
1062;SDS011;520;50.932;6.962;2023-03-01T17:10:13;8.40;;;6.43;;
1062;SDS011;520;50.932;6.962;2023-03-01T17:12:56;6.23;;;5.60;;
1062;SDS011;520;50.932;6.962;2023-03-01T17:15:32;7.33;;;5.73;;
1062;SDS011;520;50.932;6.962;2023-03-01T17:18:11;7.73;;;5.27;;
1062;SDS011;520;50.932;6.962;2023-03-01T17:20:46;7.73;;;5.73;;
1062;SDS011;520;50.932;6.962;2023-03-01T17:23:41;8.50;;;5.47;;
1062;SDS011;520;50.932;6.962;2023-03-01T17:26:41;6.07;;;5.10;;
1062;SDS011;520;50.932;6.962;2023-03-01T17:29:15;5.87;;;5.30;;
1062;SDS011;520;50.932;6.962;2023-03-01T17:31:47;7.10;;;5.90;;
1062;SDS011;520;50.932;6.962;2023-03-01T17:34:23;6.83;;;6.10;;
1062;SDS011;520;50.932;6.962;2023-03-01T17:36:58;6.53;;;5.67;;
1062;SDS011;520;50.932;6.962;2023-03-01T17:39:31;8.20;;;6.23;;
1062;SDS011;520;50.932;6.962;2023-03-01T17:42:57;6.30;;;5.30;;
1062;SDS011;520;50.932;6.962;2023-03-01T17:49:54;9.10;;;6.43;;
1062;SDS011;520;50.932;6.962;2023-03-01T18:22:18;7.23;;;6.50;;
1062;SDS011;520;50.932;6.962;2023-03-01T18:24:56;8.70;;;6.63;;
1062;SDS011;520;50.932;6.962;2023-03-01T18:27:51;8.77;;;7.10;;
1062;SDS011;520;50.932;6.962;2023-03-01T18:31:07;8.07;;;7.07;;
1062;SDS011;520;50.932;6.962;2023-03-01T18:34:08;8.20;;;7.40;;
1062;SDS011;520;50.932;6.962;2023-03-01T18:37:58;7.63;;;5.90;;
1062;SDS011;520;50.932;6.962;2023-03-01T18:41:06;7.03;;;6.07;;
1062;SDS011;520;50.932;6.962;2023-03-01T18:43:58;11.13;;;7.07;;
1062;SDS011;520;50.932;6.962;2023-03-01T18:46:34;7.70;;;6.90;;
1062;SDS011;520;50.932;6.962;2023-03-01T18:49:06;8.40;;;7.43;;
1062;SDS011;520;50.932;6.962;2023-03-01T18:51:43;7.10;;;6.10;;
1062;SDS011;520;50.932;6.962;2023-03-01T18:54:34;9.90;;;7.50;;
1062;SDS011;520;50.932;6.962;2023-03-01T18:57:14;7.70;;;6.87;;
1062;SDS011;520;50.932;6.962;2023-03-01T18:59:57;8.13;;;6.50;;
1062;SDS011;520;50.932;6.962;2023-03-01T19:03:00;8.80;;;6.90;;
1062;SDS011;520;50.932;6.962;2023-03-01T19:05:40;9.70;;;7.33;;
1062;SDS011;520;50.932;6.962;2023-03-01T19:08:43;8.70;;;7.20;;
1062;SDS011;520;50.932;6.962;2023-03-01T19:11:46;9.60;;;7.67;;
1062;SDS011;520;50.932;6.962;2023-03-01T19:14:33;9.83;;;7.77;;
1062;SDS011;520;50.932;6.962;2023-03-01T19:17:39;9.43;;;7.80;;
1062;SDS011;520;50.932;6.962;2023-03-01T19:20:23;9.27;;;7.63;;
1062;SDS011;520;50.932;6.962;2023-03-01T19:23:19;9.90;;;6.77;;
1062;SDS011;520;50.932;6.962;2023-03-01T19:26:33;12.73;;;6.57;;
1062;SDS011;520;50.932;6.962;2023-03-01T19:29:22;10.73;;;6.93;;
1062;SDS011;520;50.932;6.962;2023-03-01T19:32:18;9.53;;;6.80;;
1062;SDS011;520;50.932;6.962;2023-03-01T19:37:43;11.10;;;7.80;;
1062;SDS011;520;50.932;6.962;2023-03-01T19:40:55;11.70;;;7.07;;
1062;SDS011;520;50.932;6.962;2023-03-01T19:43:41;8.57;;;7.03;;
1062;SDS011;520;50.932;6.962;2023-03-01T19:46:35;8.07;;;6.97;;
1062;SDS011;520;50.932;6.962;2023-03-01T19:49:50;8.10;;;6.50;;
1062;SDS011;520;50.932;6.962;2023-03-01T19:53:00;9.73;;;6.90;;
1062;SDS011;520;50.932;6.962;2023-03-01T19:55:56;10.57;;;7.10;;
1062;SDS011;520;50.932;6.962;2023-03-01T19:58:47;8.97;;;6.73;;
1062;SDS011;520;50.932;6.962;2023-03-01T20:01:57;8.53;;;6.47;;
1062;SDS011;520;50.932;6.962;2023-03-01T20:04:35;10.27;;;6.23;;
1062;SDS011;520;50.932;6.962;2023-03-01T20:07:37;12.80;;;7.30;;
1062;SDS011;520;50.932;6.962;2023-03-01T20:10:16;10.07;;;7.50;;
1062;SDS011;520;50.932;6.962;2023-03-01T20:12:57;9.43;;;6.60;;
1062;SDS011;520;50.932;6.962;2023-03-01T20:15:55;7.57;;;5.97;;
1062;SDS011;520;50.932;6.962;2023-03-01T20:18:42;7.40;;;6.07;;
1062;SDS011;520;50.932;6.962;2023-03-01T20:21:34;8.70;;;6.70;;
1062;SDS011;520;50.932;6.962;2023-03-01T20:24:10;9.23;;;5.90;;
1062;SDS011;520;50.932;6.962;2023-03-01T20:27:02;9.87;;;6.83;;
1062;SDS011;520;50.932;6.962;2023-03-01T20:29:36;8.40;;;6.37;;
1062;SDS011;520;50.932;6.962;2023-03-01T20:32:16;7.20;;;6.10;;
1062;SDS011;520;50.932;6.962;2023-03-01T20:34:55;7.87;;;6.43;;
1062;SDS011;520;50.932;6.962;2023-03-01T20:37:32;8.10;;;6.63;;
1062;SDS011;520;50.932;6.962;2023-03-01T20:40:12;8.40;;;6.80;;
1062;SDS011;520;50.932;6.962;2023-03-01T20:43:00;7.67;;;6.67;;
1062;SDS011;520;50.932;6.962;2023-03-01T20:45:31;12.33;;;6.50;;
1062;SDS011;520;50.932;6.962;2023-03-01T20:48:15;9.60;;;6.20;;
1062;SDS011;520;50.932;6.962;2023-03-01T20:50:54;10.40;;;7.13;;
1062;SDS011;520;50.932;6.962;2023-03-01T20:53:42;9.63;;;6.50;;
1062;SDS011;520;50.932;6.962;2023-03-01T20:56:18;12.00;;;6.60;;
1062;SDS011;520;50.932;6.962;2023-03-01T20:58:50;7.33;;;6.20;;
1062;SDS011;520;50.932;6.962;2023-03-01T21:01:33;10.17;;;6.67;;
1062;SDS011;520;50.932;6.962;2023-03-01T21:04:28;10.73;;;6.13;;
1062;SDS011;520;50.932;6.962;2023-03-01T21:07:15;7.57;;;6.33;;
1062;SDS011;520;50.932;6.962;2023-03-01T21:10:11;14.57;;;11.63;;
1062;SDS011;520;50.932;6.962;2023-03-01T21:12:58;8.63;;;6.03;;
1062;SDS011;520;50.932;6.962;2023-03-01T21:15:29;8.30;;;5.97;;
1062;SDS011;520;50.932;6.962;2023-03-01T21:18:19;8.80;;;6.10;;
1062;SDS011;520;50.932;6.962;2023-03-01T21:21:07;8.73;;;6.60;;
1062;SDS011;520;50.932;6.962;2023-03-01T21:24:12;8.37;;;6.67;;
1062;SDS011;520;50.932;6.962;2023-03-01T21:26:47;6.60;;;5.87;;
1062;SDS011;520;50.932;6.962;2023-03-01T21:29:44;8.17;;;7.20;;
1062;SDS011;520;50.932;6.962;2023-03-01T21:32:15;7.10;;;6.40;;
1062;SDS011;520;50.932;6.962;2023-03-01T21:34:55;9.37;;;6.27;;
1062;SDS011;520;50.932;6.962;2023-03-01T21:37:28;9.37;;;7.10;;
1062;SDS011;520;50.932;6.962;2023-03-01T21:39:58;8.13;;;7.17;;
1062;SDS011;520;50.932;6.962;2023-03-01T21:42:28;14.47;;;6.57;;
1062;SDS011;520;50.932;6.962;2023-03-01T21:45:01;11.17;;;6.80;;
1062;SDS011;520;50.932;6.962;2023-03-01T21:47:37;8.30;;;6.03;;
1062;SDS011;520;50.932;6.962;2023-03-01T21:53:14;7.37;;;5.90;;
1062;SDS011;520;50.932;6.962;2023-03-01T21:55:46;12.70;;;8.97;;
1062;SDS011;520;50.932;6.962;2023-03-01T21:58:25;11.80;;;6.60;;
1062;SDS011;520;50.932;6.962;2023-03-01T22:00:56;6.53;;;5.93;;
1062;SDS011;520;50.932;6.962;2023-03-01T22:11:35;9.13;;;6.30;;
1062;SDS011;520;50.932;6.962;2023-03-01T22:14:18;9.23;;;6.73;;
1062;SDS011;520;50.932;6.962;2023-03-01T22:16:49;8.07;;;6.20;;
1062;SDS011;520;50.932;6.962;2023-03-01T22:22:07;10.67;;;6.00;;
1062;SDS011;520;50.932;6.962;2023-03-01T22:27:22;9.30;;;7.00;;
1062;SDS011;520;50.932;6.962;2023-03-01T22:29:55;9.73;;;7.40;;
1062;SDS011;520;50.932;6.962;2023-03-01T22:32:41;9.03;;;6.70;;
1062;SDS011;520;50.932;6.962;2023-03-01T22:35:34;8.70;;;6.67;;
1062;SDS011;520;50.932;6.962;2023-03-01T22:38:19;8.10;;;6.47;;
1062;SDS011;520;50.932;6.962;2023-03-01T22:41:06;7.60;;;6.80;;
1062;SDS011;520;50.932;6.962;2023-03-01T22:43:49;9.57;;;6.47;;
1062;SDS011;520;50.932;6.962;2023-03-01T22:46:21;7.43;;;6.23;;
1062;SDS011;520;50.932;6.962;2023-03-01T22:48:57;9.00;;;5.93;;
1062;SDS011;520;50.932;6.962;2023-03-01T22:51:33;10.27;;;7.00;;
1062;SDS011;520;50.932;6.962;2023-03-01T22:54:10;7.97;;;6.63;;
1062;SDS011;520;50.932;6.962;2023-03-01T22:56:44;7.10;;;6.20;;
1062;SDS011;520;50.932;6.962;2023-03-01T22:59:23;8.63;;;6.47;;
1062;SDS011;520;50.932;6.962;2023-03-01T23:01:57;7.67;;;6.40;;
1062;SDS011;520;50.932;6.962;2023-03-01T23:04:39;10.43;;;7.30;;
1062;SDS011;520;50.932;6.962;2023-03-01T23:07:32;11.17;;;6.70;;
1062;SDS011;520;50.932;6.962;2023-03-01T23:13:21;8.33;;;6.40;;
1062;SDS011;520;50.932;6.962;2023-03-01T23:16:17;8.80;;;5.80;;
1062;SDS011;520;50.932;6.962;2023-03-01T23:19:04;7.90;;;6.77;;
1062;SDS011;520;50.932;6.962;2023-03-01T23:21:55;8.40;;;5.90;;
1062;SDS011;520;50.932;6.962;2023-03-01T23:24:30;7.77;;;6.13;;
1062;SDS011;520;50.932;6.962;2023-03-01T23:27:10;9.77;;;6.30;;
1062;SDS011;520;50.932;6.962;2023-03-01T23:29:53;7.93;;;6.33;;
1062;SDS011;520;50.932;6.962;2023-03-01T23:32:40;8.47;;;6.87;;
1062;SDS011;520;50.932;6.962;2023-03-01T23:35:10;8.37;;;6.90;;
1062;SDS011;520;50.932;6.962;2023-03-01T23:37:57;8.97;;;7.40;;
1062;SDS011;520;50.932;6.962;2023-03-01T23:40:36;10.17;;;8.00;;
1062;SDS011;520;50.932;6.962;2023-03-01T23:43:12;12.93;;;7.30;;
1062;SDS011;520;50.932;6.962;2023-03-01T23:45:44;9.77;;;7.73;;
1062;SDS011;520;50.932;6.962;2023-03-01T23:48:33;8.53;;;6.60;;
1062;SDS011;520;50.932;6.962;2023-03-01T23:51:18;8.60;;;6.57;;
1062;SDS011;520;50.932;6.962;2023-03-01T23:54:21;10.60;;;6.80;;
1062;SDS011;520;50.932;6.962;2023-03-01T23:56:56;8.50;;;6.93;;
1062;SDS011;520;50.932;6.962;2023-03-01T23:59:46;12.37;;;7.37;;
